Time,TemperatureF,DewpointF,PressureIn,WindDirection,WindDirectionDegrees,WindSpeedMPH,WindSpeedGustMPH,Humidity,HourlyPrecipIn,Conditions,Clouds,dailyrainin,SolarRadiationWatts/m^2,SoftwareType,DateUTC
2013-01-09 00:12:00,22.0,13.0,-100.00,ENE,77,2.0,6.0,69,-99.99,,,0.00,0.000000,,2013-01-09 07:12:00,
2013-01-09 00:22:00,22.0,13.0,-100.00,ENE,77,2.0,6.0,69,-99.99,,,0.00,0.000000,,2013-01-09 07:22:00,
2013-01-09 00:51:00,22.0,12.0,-100.00,ENE,77,3.0,7.0,66,-99.99,,,0.00,0.000000,,2013-01-09 07:51:00,
2013-01-09 01:12:00,22.0,12.0,-100.00,ENE,77,3.0,7.0,66,-99.99,,,0.00,0.000000,,2013-01-09 08:12:00,
2013-01-09 01:22:00,22.0,12.0,-100.00,ENE,77,3.0,7.0,66,-99.99,,,0.00,0.000000,,2013-01-09 08:22:00,
2013-01-09 01:42:00,22.0,12.0,-100.00,ENE,77,3.0,7.0,66,-99.99,,,0.00,0.000000,,2013-01-09 08:42:00,
2013-01-09 02:12:00,24.0,13.0,-100.00,ESE,108,7.0,12.0,63,0.00,,,0.00,0.000000,,2013-01-09 09:12:00,
2013-01-09 02:22:00,24.0,13.0,-100.00,ESE,108,7.0,12.0,63,0.00,,,0.00,0.000000,,2013-01-09 09:22:00,
2013-01-09 02:51:00,19.0,12.0,-100.00,ENE,71,1.0,12.0,74,-99.99,,,-99.99,0.000000,,2013-01-09 09:51:00,
2013-01-09 03:22:00,19.0,12.0,-100.00,ENE,71,1.0,12.0,74,-99.99,,,-99.99,0.000000,,2013-01-09 10:22:00,
2013-01-09 03:42:00,19.0,12.0,-100.00,ENE,71,1.0,12.0,74,-99.99,,,-99.99,0.000000,,2013-01-09 10:42:00,
2013-01-09 04:22:00,21.0,12.0,-100.00,NE,56,3.0,7.0,67,0.00,,,0.00,0.000000,,2013-01-09 11:22:00,
2013-01-09 05:12:00,17.0,10.0,-100.00,WSW,257,3.0,5.0,73,0.00,,,0.00,0.000000,,2013-01-09 12:12:00,
2013-01-09 05:22:00,17.0,10.0,-100.00,WSW,257,3.0,5.0,73,0.00,,,0.00,0.000000,,2013-01-09 12:22:00,
2013-01-09 05:33:00,17.0,10.0,-100.00,WSW,257,3.0,5.0,73,0.00,,,0.00,0.000000,,2013-01-09 12:33:00,
2013-01-09 06:12:00,20.0,11.0,-100.00,East,82,3.0,10.0,67,-99.99,,,0.00,0.000000,,2013-01-09 13:12:00,
2013-01-09 06:22:00,20.0,11.0,-100.00,East,82,3.0,10.0,67,-99.99,,,0.00,0.000000,,2013-01-09 13:22:00,
2013-01-09 08:12:00,19.0,11.0,-100.00,ESE,113,4.0,7.0,70,-99.99,,,0.00,4.000000,,2013-01-09 15:12:00,
2013-01-09 08:22:00,19.0,11.0,-100.00,ESE,113,4.0,7.0,70,-99.99,,,0.00,4.000000,,2013-01-09 15:22:00,
2013-01-09 10:12:00,27.0,13.0,-100.00,WSW,252,1.0,4.0,54,0.00,,,0.00,335.000000,,2013-01-09 17:12:00,
2013-01-09 10:22:00,27.0,13.0,-100.00,WSW,252,1.0,4.0,54,0.00,,,0.00,335.000000,,2013-01-09 17:22:00,
2013-01-09 11:23:00,30.0,14.0,-100.00,North,358,2.0,4.0,50,0.00,,,0.00,459.000000,,2013-01-09 18:23:00,
2013-01-09 11:33:00,30.0,14.0,-100.00,North,358,2.0,4.0,50,0.00,,,0.00,459.000000,,2013-01-09 18:33:00,
2013-01-09 11:51:00,31.0,15.0,-100.00,WSW,256,5.0,9.0,52,0.00,,,0.00,592.000000,,2013-01-09 18:51:00,
2013-01-09 12:22:00,31.0,15.0,-100.00,WSW,256,5.0,9.0,52,0.00,,,0.00,592.000000,,2013-01-09 19:22:00,
2013-01-09 12:33:00,31.0,15.0,-100.00,WSW,256,5.0,9.0,52,0.00,,,0.00,592.000000,,2013-01-09 19:33:00,
2013-01-09 12:43:00,31.0,15.0,-100.00,WSW,256,5.0,9.0,52,0.00,,,0.00,592.000000,,2013-01-09 19:43:00,
2013-01-09 12:51:00,37.0,17.0,-100.00,West,259,1.0,6.0,44,0.00,,,0.00,626.000000,,2013-01-09 19:51:00,
2013-01-09 13:22:00,37.0,17.0,-100.00,West,259,1.0,6.0,44,0.00,,,0.00,626.000000,,2013-01-09 20:22:00,
2013-01-09 13:33:00,37.0,17.0,-100.00,West,259,1.0,6.0,44,0.00,,,0.00,626.000000,,2013-01-09 20:33:00,
2013-01-09 13:42:00,37.0,17.0,-100.00,West,259,1.0,6.0,44,0.00,,,0.00,626.000000,,2013-01-09 20:42:00,
2013-01-09 13:51:00,38.0,16.0,-100.00,West,272,2.0,4.0,41,0.00,,,0.00,581.000000,,2013-01-09 20:51:00,
2013-01-09 14:22:00,38.0,16.0,-100.00,West,272,2.0,4.0,41,0.00,,,0.00,581.000000,,2013-01-09 21:22:00,
2013-01-09 14:33:00,38.0,16.0,-100.00,West,272,2.0,4.0,41,0.00,,,0.00,581.000000,,2013-01-09 21:33:00,
2013-01-09 14:42:00,38.0,16.0,-100.00,West,272,2.0,4.0,41,0.00,,,0.00,581.000000,,2013-01-09 21:42:00,
2013-01-09 14:51:00,40.0,16.0,-100.00,West,281,1.0,4.0,37,0.00,,,0.00,476.000000,,2013-01-09 21:51:00,
2013-01-09 15:22:00,40.0,16.0,-100.00,West,281,1.0,4.0,37,0.00,,,0.00,476.000000,,2013-01-09 22:22:00,
2013-01-09 15:33:00,40.0,16.0,-100.00,West,281,1.0,4.0,37,0.00,,,0.00,476.000000,,2013-01-09 22:33:00,
2013-01-09 15:42:00,40.0,16.0,-100.00,West,281,1.0,4.0,37,0.00,,,0.00,476.000000,,2013-01-09 22:42:00,
2013-01-09 15:51:00,37.0,16.0,-100.00,West,273,2.0,4.0,41,0.00,,,0.00,320.000000,,2013-01-09 22:51:00,
2013-01-09 16:22:00,37.0,16.0,-100.00,West,273,2.0,4.0,41,0.00,,,0.00,320.000000,,2013-01-09 23:22:00,
2013-01-09 16:32:00,37.0,16.0,-100.00,West,273,2.0,4.0,41,0.00,,,0.00,320.000000,,2013-01-09 23:32:00,
2013-01-09 16:42:00,37.0,16.0,-100.00,West,273,2.0,4.0,41,0.00,,,0.00,320.000000,,2013-01-09 23:42:00,
2013-01-09 16:51:00,34.0,14.0,-100.00,West,266,3.0,4.0,43,0.00,,,0.00,125.000000,,2013-01-09 23:51:00,
2013-01-09 17:22:00,34.0,14.0,-100.00,West,266,3.0,4.0,43,0.00,,,0.00,125.000000,,2013-01-10 00:22:00,
2013-01-09 17:32:00,34.0,14.0,-100.00,West,266,3.0,4.0,43,0.00,,,0.00,125.000000,,2013-01-10 00:32:00,
2013-01-09 17:42:00,34.0,14.0,-100.00,West,266,3.0,4.0,43,0.00,,,0.00,125.000000,,2013-01-10 00:42:00,
2013-01-09 18:12:00,30.0,13.0,-100.00,WNW,283,6.0,8.0,49,0.00,,,0.00,3.000000,,2013-01-10 01:12:00,
2013-01-09 18:22:00,30.0,13.0,-100.00,WNW,283,6.0,8.0,49,0.00,,,0.00,3.000000,,2013-01-10 01:22:00,
2013-01-09 18:32:00,30.0,13.0,-100.00,WNW,283,6.0,8.0,49,0.00,,,0.00,3.000000,,2013-01-10 01:32:00,
2013-01-09 18:51:00,29.0,13.0,-100.00,SSW,199,0.0,6.0,51,-99.99,,,0.00,0.000000,,2013-01-10 01:51:00,
2013-01-09 19:12:00,29.0,13.0,-100.00,SSW,199,0.0,6.0,51,-99.99,,,0.00,0.000000,,2013-01-10 02:12:00,
2013-01-09 19:22:00,29.0,13.0,-100.00,SSW,199,0.0,6.0,51,-99.99,,,0.00,0.000000,,2013-01-10 02:22:00,
2013-01-09 19:32:00,29.0,13.0,-100.00,SSW,199,0.0,6.0,51,-99.99,,,0.00,0.000000,,2013-01-10 02:32:00,
2013-01-09 19:42:00,29.0,13.0,-100.00,SSW,199,0.0,6.0,51,-99.99,,,0.00,0.000000,,2013-01-10 02:42:00,
2013-01-09 20:12:00,28.0,14.0,-100.00,SE,129,2.0,4.0,55,-99.99,,,0.00,0.000000,,2013-01-10 03:12:00,
2013-01-09 20:22:00,28.0,14.0,-100.00,SE,129,2.0,4.0,55,-99.99,,,0.00,0.000000,,2013-01-10 03:22:00,
2013-01-09 20:32:00,28.0,14.0,-100.00,SE,129,2.0,4.0,55,-99.99,,,0.00,0.000000,,2013-01-10 03:32:00,
2013-01-09 21:12:00,26.0,13.0,-100.00,WSW,255,2.0,4.0,57,-99.99,,,0.00,0.000000,,2013-01-10 04:12:00,
2013-01-09 21:22:00,26.0,13.0,-100.00,WSW,255,2.0,4.0,57,-99.99,,,0.00,0.000000,,2013-01-10 04:22:00,
2013-01-09 22:12:00,24.0,14.0,-100.00,NW,309,1.0,-999.0,66,-99.99,,,0.00,,,2013-01-10 05:12:00,
2013-01-09 22:22:00,24.0,14.0,-100.00,NW,309,1.0,-999.0,66,-99.99,,,0.00,,,2013-01-10 05:22:00,
2013-01-09 23:11:00,24.0,14.0,-100.00,West,269,1.0,3.0,65,0.00,,,0.00,0.000000,,2013-01-10 06:11:00,
2013-01-09 23:22:00,24.0,14.0,-100.00,West,269,1.0,3.0,65,0.00,,,0.00,0.000000,,2013-01-10 06:22:00,